Time,TemperatureF,DewpointF,PressureIn,WindDirection,WindDirectionDegrees,WindSpeedMPH,WindSpeedGustMPH,Humidity,HourlyPrecipIn,Conditions,Clouds,dailyrainin,SoftwareType,DateUTC
2013-03-02 00:01:00,53.7,25.3,30.24,NNW,343,5.0,9.0,33,0.00,,,0.00,VWS V14.01,2013-03-02 07:01:00,
2013-03-02 00:06:00,54.0,25.6,30.24,NNW,333,6.0,7.0,33,0.00,,,0.00,VWS V14.01,2013-03-02 07:06:00,
2013-03-02 00:11:00,54.2,25.7,30.24,NNW,345,5.0,5.0,33,0.00,,,0.00,VWS V14.01,2013-03-02 07:11:00,
2013-03-02 00:16:00,54.5,25.3,30.24,NNW,348,3.0,3.0,32,0.00,,,0.00,VWS V14.01,2013-03-02 07:16:00,
2013-03-02 00:21:00,54.5,25.3,30.24,North,5,0.0,2.0,32,0.00,,,0.00,VWS V14.01,2013-03-02 07:21:00,
2013-03-02 00:26:00,54.4,25.2,30.24,North,355,2.0,2.0,32,0.00,,,0.00,VWS V14.01,2013-03-02 07:26:00,
2013-03-02 00:31:00,54.2,25.7,30.24,North,360,1.0,3.0,33,0.00,,,0.00,VWS V14.01,2013-03-02 07:31:00,
2013-03-02 00:36:00,53.9,25.5,30.24,North,5,2.0,3.0,33,0.00,,,0.00,VWS V14.01,2013-03-02 07:36:00,
2013-03-02 00:41:00,53.8,25.4,30.24,North,5,3.0,3.0,33,0.00,,,0.00,VWS V14.01,2013-03-02 07:41:00,
2013-03-02 00:46:00,53.5,25.8,30.24,North,5,4.0,5.0,34,0.00,,,0.00,VWS V14.01,2013-03-02 07:46:00,
2013-03-02 00:51:00,52.9,26.0,30.24,North,5,5.0,5.0,35,0.00,,,0.00,VWS V14.01,2013-03-02 07:51:00,
2013-03-02 00:56:00,52.4,25.6,30.24,North,355,3.0,3.0,35,0.00,,,0.00,VWS V14.01,2013-03-02 07:56:00,
2013-03-02 01:01:00,52.6,25.0,30.24,North,5,4.0,4.0,34,0.00,,,0.00,VWS V14.01,2013-03-02 08:01:00,
2013-03-02 01:06:00,52.8,25.2,30.23,North,5,1.0,2.0,34,0.00,,,0.00,VWS V14.01,2013-03-02 08:06:00,
2013-03-02 01:11:00,52.7,25.8,30.24,North,5,2.0,2.0,35,0.00,,,0.00,VWS V14.01,2013-03-02 08:11:00,
2013-03-02 01:16:00,52.5,25.7,30.24,North,5,5.0,5.0,35,0.00,,,0.00,VWS V14.01,2013-03-02 08:16:00,
2013-03-02 01:21:00,52.3,25.5,30.24,NNE,12,2.0,5.0,35,0.00,,,0.00,VWS V14.01,2013-03-02 08:21:00,
2013-03-02 01:26:00,52.1,25.3,30.24,North,5,5.0,5.0,35,0.00,,,0.00,VWS V14.01,2013-03-02 08:26:00,
2013-03-02 01:31:00,52.4,25.6,30.24,North,11,4.0,4.0,35,0.00,,,0.00,VWS V14.01,2013-03-02 08:31:00,
2013-03-02 01:36:00,52.3,25.5,30.24,North,360,5.0,8.0,35,0.00,,,0.00,VWS V14.01,2013-03-02 08:36:00,
2013-03-02 01:41:00,52.3,24.8,30.24,North,355,5.0,7.0,34,0.00,,,0.00,VWS V14.01,2013-03-02 08:41:00,
2013-03-02 01:46:00,52.6,25.0,30.24,NNE,15,3.0,4.0,34,0.00,,,0.00,VWS V14.01,2013-03-02 08:46:00,
2013-03-02 01:51:00,52.9,24.6,30.24,North,355,6.0,7.0,33,0.00,,,0.00,VWS V14.01,2013-03-02 08:51:00,
2013-03-02 01:56:00,53.5,24.4,30.24,NNE,32,4.0,5.0,32,0.00,,,0.00,VWS V14.01,2013-03-02 08:56:00,
2013-03-02 02:01:00,53.5,24.4,30.24,NNE,12,4.0,4.0,32,0.00,,,0.00,VWS V14.01,2013-03-02 09:01:00,
2013-03-02 02:06:00,53.0,24.7,30.24,NNW,348,8.0,9.0,33,0.00,,,0.00,VWS V14.01,2013-03-02 09:06:00,
2013-03-02 02:11:00,52.7,24.4,30.24,North,5,8.0,8.0,33,0.00,,,0.00,VWS V14.01,2013-03-02 09:11:00,
2013-03-02 02:16:00,52.8,24.5,30.24,North,355,9.0,9.0,33,0.00,,,0.00,VWS V14.01,2013-03-02 09:16:00,
2013-03-02 02:21:00,53.0,24.7,30.24,NNW,347,7.0,7.0,33,0.00,,,0.00,VWS V14.01,2013-03-02 09:21:00,
2013-03-02 02:26:00,52.7,24.4,30.24,North,360,6.0,6.0,33,0.00,,,0.00,VWS V14.01,2013-03-02 09:26:00,
2013-03-02 02:31:00,52.5,24.2,30.24,NNW,348,4.0,7.0,33,0.00,,,0.00,VWS V14.01,2013-03-02 09:31:00,
2013-03-02 02:36:00,52.5,24.2,30.23,NNW,330,7.0,9.0,33,0.00,,,0.00,VWS V14.01,2013-03-02 09:36:00,
2013-03-02 02:41:00,52.6,24.3,30.23,NNW,346,6.0,8.0,33,0.00,,,0.00,VWS V14.01,2013-03-02 09:41:00,
2013-03-02 02:46:00,52.8,24.5,30.23,NNW,345,7.0,7.0,33,0.00,,,0.00,VWS V14.01,2013-03-02 09:46:00,
2013-03-02 02:51:00,53.0,24.0,30.23,North,350,6.0,8.0,32,0.00,,,0.00,VWS V14.01,2013-03-02 09:51:00,
2013-03-02 02:56:00,53.2,24.1,30.23,NNW,342,7.0,9.0,32,0.00,,,0.00,VWS V14.01,2013-03-02 09:56:00,
2013-03-02 03:01:00,53.5,24.4,30.23,NNW,327,3.0,5.0,32,0.00,,,0.00,VWS V14.01,2013-03-02 10:01:00,
2013-03-02 03:06:00,53.4,24.3,30.23,NNW,336,5.0,5.0,32,0.00,,,0.00,VWS V14.01,2013-03-02 10:06:00,
2013-03-02 03:11:00,53.4,24.3,30.23,NNW,334,4.0,6.0,32,0.00,,,0.00,VWS V14.01,2013-03-02 10:11:00,
2013-03-02 03:16:00,53.3,24.2,30.23,NNW,346,5.0,6.0,32,0.00,,,0.00,VWS V14.01,2013-03-02 10:16:00,
2013-03-02 03:21:00,53.1,24.0,30.23,North,360,6.0,7.0,32,0.00,,,0.00,VWS V14.01,2013-03-02 10:21:00,
2013-03-02 03:26:00,53.0,24.0,30.23,NNW,348,6.0,7.0,32,0.00,,,0.00,VWS V14.01,2013-03-02 10:26:00,
2013-03-02 03:31:00,52.8,23.8,30.23,North,351,1.0,5.0,32,0.00,,,0.00,VWS V14.01,2013-03-02 10:31:00,
2013-03-02 03:36:00,52.4,24.2,30.23,North,355,5.0,7.0,33,0.00,,,0.00,VWS V14.01,2013-03-02 10:36:00,
2013-03-02 03:41:00,52.1,23.9,30.23,NNW,345,5.0,8.0,33,0.00,,,0.00,VWS V14.01,2013-03-02 10:41:00,
2013-03-02 03:46:00,51.9,24.4,30.23,North,360,6.0,6.0,34,0.00,,,0.00,VWS V14.01,2013-03-02 10:46:00,
2013-03-02 03:51:00,51.7,24.3,30.23,North,350,3.0,6.0,34,0.00,,,0.00,VWS V14.01,2013-03-02 10:51:00,
2013-03-02 03:56:00,51.4,24.0,30.23,North,351,7.0,7.0,34,0.00,,,0.00,VWS V14.01,2013-03-02 10:56:00,
2013-03-02 04:01:00,51.2,23.8,30.22,NNW,342,6.0,9.0,34,0.00,,,0.00,VWS V14.01,2013-03-02 11:01:00,
2013-03-02 04:06:00,51.2,23.8,30.22,North,349,7.0,7.0,34,0.00,,,0.00,VWS V14.01,2013-03-02 11:06:00,
2013-03-02 04:11:00,51.2,23.8,30.23,North,355,7.0,7.0,34,0.00,,,0.00,VWS V14.01,2013-03-02 11:11:00,
2013-03-02 04:16:00,51.1,24.4,30.23,North,5,6.0,8.0,35,0.00,,,0.00,VWS V14.01,2013-03-02 11:16:00,
2013-03-02 04:21:00,50.9,24.2,30.23,North,10,6.0,7.0,35,0.00,,,0.00,VWS V14.01,2013-03-02 11:21:00,
2013-03-02 04:26:00,50.8,24.1,30.23,North,360,8.0,8.0,35,0.00,,,0.00,VWS V14.01,2013-03-02 11:26:00,
2013-03-02 04:31:00,51.0,24.3,30.23,NW,320,5.0,7.0,35,0.00,,,0.00,VWS V14.01,2013-03-02 11:31:00,
2013-03-02 04:36:00,51.0,24.3,30.23,North,360,6.0,8.0,35,0.00,,,0.00,VWS V14.01,2013-03-02 11:36:00,
2013-03-02 04:41:00,51.0,24.3,30.24,North,5,6.0,7.0,35,0.00,,,0.00,VWS V14.01,2013-03-02 11:41:00,
2013-03-02 04:46:00,50.9,24.2,30.23,North,5,6.0,7.0,35,0.00,,,0.00,VWS V14.01,2013-03-02 11:46:00,
2013-03-02 04:51:00,50.7,24.1,30.24,North,355,6.0,8.0,35,0.00,,,0.00,VWS V14.01,2013-03-02 11:51:00,
2013-03-02 04:56:00,50.5,23.9,30.24,North,355,7.0,7.0,35,0.00,,,0.00,VWS V14.01,2013-03-02 11:56:00,
2013-03-02 05:01:00,50.4,24.5,30.24,North,10,5.0,7.0,36,0.00,,,0.00,VWS V14.01,2013-03-02 12:01:00,
2013-03-02 05:06:00,50.2,24.3,30.24,North,360,7.0,8.0,36,0.00,,,0.00,VWS V14.01,2013-03-02 12:06:00,
2013-03-02 05:11:00,50.4,23.8,30.24,North,351,6.0,8.0,35,0.00,,,0.00,VWS V14.01,2013-03-02 12:11:00,
2013-03-02 05:16:00,50.6,24.0,30.24,NNW,329,4.0,6.0,35,0.00,,,0.00,VWS V14.01,2013-03-02 12:16:00,
2013-03-02 05:21:00,50.7,24.1,30.24,North,355,5.0,10.0,35,0.00,,,0.00,VWS V14.01,2013-03-02 12:21:00,
2013-03-02 05:26:00,51.0,24.3,30.24,NNW,328,8.0,8.0,35,0.00,,,0.00,VWS V14.01,2013-03-02 12:26:00,
2013-03-02 05:31:00,51.0,24.3,30.24,NNW,345,5.0,8.0,35,0.00,,,0.00,VWS V14.01,2013-03-02 12:31:00,
2013-03-02 05:36:00,50.7,24.1,30.24,NNW,342,5.0,9.0,35,0.00,,,0.00,VWS V14.01,2013-03-02 12:36:00,
2013-03-02 05:41:00,50.3,23.7,30.24,North,355,9.0,9.0,35,0.00,,,0.00,VWS V14.01,2013-03-02 12:41:00,
2013-03-02 05:46:00,50.0,24.1,30.24,North,360,7.0,7.0,36,0.00,,,0.00,VWS V14.01,2013-03-02 12:46:00,
2013-03-02 05:51:00,49.7,24.5,30.25,NNW,342,6.0,8.0,37,0.00,,,0.00,VWS V14.01,2013-03-02 12:51:00,
2013-03-02 05:56:00,49.4,24.2,30.25,NNW,327,6.0,9.0,37,0.00,,,0.00,VWS V14.01,2013-03-02 12:56:00,
2013-03-02 06:01:00,49.4,24.9,30.25,North,351,6.0,7.0,38,0.00,,,0.00,VWS V14.01,2013-03-02 13:01:00,
2013-03-02 06:06:00,49.3,24.8,30.25,NNW,345,6.0,6.0,38,0.00,,,0.00,VWS V14.01,2013-03-02 13:06:00,
2013-03-02 06:11:00,49.2,24.7,30.25,North,355,6.0,6.0,38,0.00,,,0.00,VWS V14.01,2013-03-02 13:11:00,
2013-03-02 06:16:00,49.4,24.9,30.25,NNW,346,9.0,9.0,38,0.00,,,0.00,VWS V14.01,2013-03-02 13:16:00,
2013-03-02 06:21:00,49.6,24.4,30.25,NNW,342,5.0,7.0,37,0.00,,,0.00,VWS V14.01,2013-03-02 13:21:00,
2013-03-02 06:26:00,49.6,24.4,30.25,NNW,331,5.0,10.0,37,0.00,,,0.00,VWS V14.01,2013-03-02 13:26:00,
2013-03-02 06:31:00,49.7,24.5,30.25,North,349,4.0,7.0,37,0.00,,,0.00,VWS V14.01,2013-03-02 13:31:00,
2013-03-02 06:36:00,49.7,24.5,30.25,NNW,344,5.0,7.0,37,0.00,,,0.00,VWS V14.01,2013-03-02 13:36:00,
2013-03-02 06:41:00,49.8,24.6,30.25,NNW,338,6.0,10.0,37,0.00,,,0.00,VWS V14.01,2013-03-02 13:41:00,
2013-03-02 06:46:00,50.0,25.4,30.25,NNW,329,6.0,6.0,38,0.00,,,0.00,VWS V14.01,2013-03-02 13:46:00,
2013-03-02 06:51:00,50.1,24.9,30.25,NNW,327,3.0,7.0,37,0.00,,,0.00,VWS V14.01,2013-03-02 13:51:00,
2013-03-02 06:56:00,50.3,24.4,30.25,NNW,338,6.0,6.0,36,0.00,,,0.00,VWS V14.01,2013-03-02 13:56:00,
2013-03-02 07:02:00,50.5,24.6,30.25,North,349,3.0,6.0,36,0.00,,,0.00,VWS V14.01,2013-03-02 14:02:00,
2013-03-02 07:07:00,50.7,24.7,30.25,NW,323,2.0,5.0,36,0.00,,,0.00,VWS V14.01,2013-03-02 14:07:00,
2013-03-02 07:12:00,50.8,24.1,30.25,NNW,341,5.0,6.0,35,0.00,,,0.00,VWS V14.01,2013-03-02 14:12:00,
2013-03-02 07:17:00,51.2,24.5,30.26,North,350,3.0,6.0,35,0.00,,,0.00,VWS V14.01,2013-03-02 14:17:00,
2013-03-02 07:22:00,51.2,25.2,30.26,North,350,3.0,5.0,36,0.00,,,0.00,VWS V14.01,2013-03-02 14:22:00,
2013-03-02 07:27:00,51.0,25.0,30.25,North,355,5.0,6.0,36,0.00,,,0.00,VWS V14.01,2013-03-02 14:27:00,
2013-03-02 07:32:00,51.0,25.0,30.26,North,360,4.0,7.0,36,0.00,,,0.00,VWS V14.01,2013-03-02 14:32:00,
2013-03-02 07:37:00,51.3,25.9,30.26,North,351,5.0,6.0,37,0.00,,,0.00,VWS V14.01,2013-03-02 14:37:00,
2013-03-02 07:42:00,51.7,25.6,30.26,NNW,348,6.0,8.0,36,0.00,,,0.00,VWS V14.01,2013-03-02 14:42:00,
2013-03-02 07:47:00,52.2,26.1,30.25,North,355,3.0,7.0,36,0.00,,,0.00,VWS V14.01,2013-03-02 14:47:00,
2013-03-02 07:52:00,52.6,26.4,30.26,NNE,14,4.0,8.0,36,0.00,,,0.00,VWS V14.01,2013-03-02 14:52:00,
2013-03-02 07:57:00,52.8,25.9,30.25,North,349,6.0,8.0,35,0.00,,,0.00,VWS V14.01,2013-03-02 14:57:00,
2013-03-02 08:02:00,53.1,26.9,30.25,NNW,342,6.0,8.0,36,0.00,,,0.00,VWS V14.01,2013-03-02 15:02:00,
2013-03-02 08:07:00,53.4,27.1,30.25,NNW,339,5.0,7.0,36,0.00,,,0.00,VWS V14.01,2013-03-02 15:07:00,
2013-03-02 08:12:00,53.8,26.8,30.25,North,349,4.0,7.0,35,0.00,,,0.00,VWS V14.01,2013-03-02 15:12:00,
2013-03-02 08:17:00,54.2,27.2,30.25,North,350,3.0,8.0,35,0.00,,,0.00,VWS V14.01,2013-03-02 15:17:00,
2013-03-02 08:22:00,54.7,27.6,30.25,NNW,342,7.0,9.0,35,0.00,,,0.00,VWS V14.01,2013-03-02 15:22:00,
2013-03-02 08:27:00,55.1,28.0,30.25,NNW,337,8.0,8.0,35,0.00,,,0.00,VWS V14.01,2013-03-02 15:27:00,
2013-03-02 08:32:00,55.6,27.7,30.25,North,351,11.0,11.0,34,0.00,,,0.00,VWS V14.01,2013-03-02 15:32:00,
2013-03-02 08:37:00,56.2,27.5,30.25,North,351,7.0,9.0,33,0.00,,,0.00,VWS V14.01,2013-03-02 15:37:00,
2013-03-02 08:42:00,57.0,28.2,30.25,NNW,329,4.0,11.0,33,0.00,,,0.00,VWS V14.01,2013-03-02 15:42:00,
2013-03-02 08:47:00,57.8,28.2,30.25,NNW,346,6.0,9.0,32,0.00,,,0.00,VWS V14.01,2013-03-02 15:47:00,
2013-03-02 08:52:00,58.7,28.9,30.25,North,360,6.0,9.0,32,0.00,,,0.00,VWS V14.01,2013-03-02 15:52:00,
2013-03-02 08:57:00,59.8,27.5,30.25,NW,311,3.0,8.0,29,0.00,,,0.00,VWS V14.01,2013-03-02 15:57:00,
2013-03-02 09:02:00,60.8,28.4,30.25,NNW,333,5.0,5.0,29,0.00,,,0.00,VWS V14.01,2013-03-02 16:02:00,
2013-03-02 09:07:00,61.5,28.1,30.25,NNW,328,6.0,6.0,28,0.00,,,0.00,VWS V14.01,2013-03-02 16:07:00,
2013-03-02 09:12:00,61.9,27.6,30.25,NNW,334,7.0,8.0,27,0.00,,,0.00,VWS V14.01,2013-03-02 16:12:00,
2013-03-02 09:17:00,62.2,27.8,30.25,NNW,336,2.0,7.0,27,0.00,,,0.00,VWS V14.01,2013-03-02 16:17:00,
2013-03-02 09:22:00,62.6,28.2,30.25,North,360,4.0,6.0,27,0.00,,,0.00,VWS V14.01,2013-03-02 16:22:00,
2013-03-02 09:27:00,63.2,27.8,30.25,North,5,5.0,6.0,26,0.00,,,0.00,VWS V14.01,2013-03-02 16:27:00,
2013-03-02 09:32:00,63.4,27.9,30.24,NW,319,3.0,7.0,26,0.00,,,0.00,VWS V14.01,2013-03-02 16:32:00,
2013-03-02 09:37:00,64.2,28.6,30.24,North,360,4.0,5.0,26,0.00,,,0.00,VWS V14.01,2013-03-02 16:37:00,
2013-03-02 09:42:00,64.9,28.3,30.24,NNW,337,7.0,7.0,25,0.00,,,0.00,VWS V14.01,2013-03-02 16:42:00,
2013-03-02 09:47:00,65.1,28.4,30.24,NNW,334,5.0,6.0,25,0.00,,,0.00,VWS V14.01,2013-03-02 16:47:00,
2013-03-02 09:52:00,65.3,27.6,30.24,NNW,336,4.0,6.0,24,0.00,,,0.00,VWS V14.01,2013-03-02 16:52:00,
2013-03-02 09:57:00,65.9,28.1,30.24,NNW,331,5.0,6.0,24,0.00,,,0.00,VWS V14.01,2013-03-02 16:57:00,
2013-03-02 10:02:00,66.7,28.8,30.24,NNW,328,4.0,7.0,24,0.00,,,0.00,VWS V14.01,2013-03-02 17:02:00,
2013-03-02 10:07:00,67.1,28.1,30.24,NNW,346,7.0,7.0,23,0.00,,,0.00,VWS V14.01,2013-03-02 17:07:00,
2013-03-02 10:12:00,67.4,28.4,30.24,NW,321,2.0,4.0,23,0.00,,,0.00,VWS V14.01,2013-03-02 17:12:00,
2013-03-02 10:17:00,68.0,27.8,30.23,North,351,0.0,6.0,22,0.00,,,0.00,VWS V14.01,2013-03-02 17:17:00,
2013-03-02 10:22:00,68.4,27.0,30.23,NW,325,3.0,4.0,21,0.00,,,0.00,VWS V14.01,2013-03-02 17:22:00,
2013-03-02 10:27:00,68.6,28.3,30.23,North,355,4.0,6.0,22,0.00,,,0.00,VWS V14.01,2013-03-02 17:27:00,
2013-03-02 10:32:00,69.0,27.5,30.23,NW,325,1.0,5.0,21,0.00,,,0.00,VWS V14.01,2013-03-02 17:32:00,
2013-03-02 10:37:00,69.5,27.9,30.23,NNW,336,3.0,3.0,21,0.00,,,0.00,VWS V14.01,2013-03-02 17:37:00,
2013-03-02 10:42:00,70.0,27.1,30.23,NNW,336,2.0,3.0,20,0.00,,,0.00,VWS V14.01,2013-03-02 17:42:00,
2013-03-02 10:47:00,70.6,26.4,30.23,NNW,336,0.0,2.0,19,0.00,,,0.00,VWS V14.01,2013-03-02 17:47:00,
2013-03-02 10:52:00,71.2,26.9,30.22,NNW,336,0.0,4.0,19,0.00,,,0.00,VWS V14.01,2013-03-02 17:52:00,
2013-03-02 10:57:00,71.3,27.0,30.22,NNW,332,5.0,5.0,19,0.00,,,0.00,VWS V14.01,2013-03-02 17:57:00,
2013-03-02 11:02:00,71.3,27.0,30.22,NNW,332,1.0,2.0,19,0.00,,,0.00,VWS V14.01,2013-03-02 18:02:00,
2013-03-02 11:07:00,71.7,28.5,30.22,North,349,2.0,3.0,20,0.00,,,0.00,VWS V14.01,2013-03-02 18:07:00,
2013-03-02 11:12:00,72.6,28.0,30.22,NNW,342,4.0,6.0,19,0.00,,,0.00,VWS V14.01,2013-03-02 18:12:00,
2013-03-02 11:17:00,73.0,28.3,30.22,NNW,336,3.0,4.0,19,0.00,,,0.00,VWS V14.01,2013-03-02 18:17:00,
2013-03-02 11:22:00,73.0,27.0,30.21,NNW,329,0.0,1.0,18,0.00,,,0.00,VWS V14.01,2013-03-02 18:22:00,
2013-03-02 11:27:00,74.0,27.9,30.21,NW,317,1.0,2.0,18,0.00,,,0.00,VWS V14.01,2013-03-02 18:27:00,
2013-03-02 11:32:00,74.5,26.9,30.21,NNW,330,2.0,4.0,17,0.00,,,0.00,VWS V14.01,2013-03-02 18:32:00,
2013-03-02 11:37:00,74.1,26.5,30.21,NW,322,4.0,5.0,17,0.00,,,0.00,VWS V14.01,2013-03-02 18:37:00,
2013-03-02 11:42:00,74.4,25.3,30.21,NW,321,0.0,1.0,16,0.00,,,0.00,VWS V14.01,2013-03-02 18:42:00,
2013-03-02 11:47:00,76.0,26.6,30.21,WNW,303,1.0,4.0,16,0.00,,,0.00,VWS V14.01,2013-03-02 18:47:00,
2013-03-02 11:52:00,76.4,26.9,30.20,WNW,296,1.0,4.0,16,0.00,,,0.00,VWS V14.01,2013-03-02 18:52:00,
2013-03-02 11:57:00,75.8,26.5,30.20,West,270,3.0,3.0,16,0.00,,,0.00,VWS V14.01,2013-03-02 18:57:00,
2013-03-02 12:02:00,75.6,29.1,30.20,West,263,5.0,6.0,18,0.00,,,0.00,VWS V14.01,2013-03-02 19:02:00,
2013-03-02 12:07:00,76.5,27.0,30.19,WSW,240,7.0,8.0,16,0.00,,,0.00,VWS V14.01,2013-03-02 19:07:00,
2013-03-02 12:12:00,76.8,27.2,30.19,SW,229,3.0,8.0,16,0.00,,,0.00,VWS V14.01,2013-03-02 19:12:00,
2013-03-02 12:17:00,77.3,27.7,30.19,SW,229,1.0,1.0,16,0.00,,,0.00,VWS V14.01,2013-03-02 19:17:00,
2013-03-02 12:22:00,77.0,28.9,30.18,SW,229,0.0,2.0,17,0.00,,,0.00,VWS V14.01,2013-03-02 19:22:00,
2013-03-02 12:27:00,75.9,28.0,30.18,SW,216,1.0,3.0,17,0.00,,,0.00,VWS V14.01,2013-03-02 19:27:00,
2013-03-02 12:32:00,76.9,27.3,30.17,SSW,210,0.0,3.0,16,0.00,,,0.00,VWS V14.01,2013-03-02 19:32:00,
2013-03-02 12:37:00,75.5,26.2,30.17,SSW,210,0.0,2.0,16,0.00,,,0.00,VWS V14.01,2013-03-02 19:37:00,
2013-03-02 12:42:00,76.9,27.3,30.17,SSW,210,3.0,5.0,16,0.00,,,0.00,VWS V14.01,2013-03-02 19:42:00,
2013-03-02 12:47:00,78.1,26.7,30.17,SSW,210,0.0,3.0,15,0.00,,,0.00,VWS V14.01,2013-03-02 19:47:00,
2013-03-02 12:52:00,78.2,26.8,30.16,SSW,210,2.0,6.0,15,0.00,,,0.00,VWS V14.01,2013-03-02 19:52:00,
2013-03-02 12:57:00,78.2,26.8,30.16,SSW,210,3.0,7.0,15,0.00,,,0.00,VWS V14.01,2013-03-02 19:57:00,
2013-03-02 13:02:00,78.9,25.7,30.16,SSW,210,0.0,3.0,14,0.00,,,0.00,VWS V14.01,2013-03-02 20:02:00,
2013-03-02 13:07:00,78.4,25.3,30.15,SSW,210,0.0,3.0,14,0.00,,,0.00,VWS V14.01,2013-03-02 20:07:00,
2013-03-02 13:12:00,78.5,27.0,30.15,SSW,210,0.0,6.0,15,0.00,,,0.00,VWS V14.01,2013-03-02 20:12:00,
2013-03-02 13:17:00,78.7,25.5,30.15,SSW,210,1.0,3.0,14,0.00,,,0.00,VWS V14.01,2013-03-02 20:17:00,
2013-03-02 13:22:00,79.0,25.8,30.14,SSW,210,3.0,7.0,14,0.00,,,0.00,VWS V14.01,2013-03-02 20:22:00,
2013-03-02 13:27:00,79.5,26.2,30.14,SSW,210,0.0,7.0,14,0.00,,,0.00,VWS V14.01,2013-03-02 20:27:00,
2013-03-02 13:32:00,79.2,25.9,30.14,SSW,212,2.0,8.0,14,0.00,,,0.00,VWS V14.01,2013-03-02 20:32:00,
2013-03-02 13:37:00,78.9,25.7,30.14,SSW,212,0.0,5.0,14,0.00,,,0.00,VWS V14.01,2013-03-02 20:37:00,
2013-03-02 13:42:00,79.3,26.0,30.14,SSW,213,0.0,4.0,14,0.00,,,0.00,VWS V14.01,2013-03-02 20:42:00,
2013-03-02 13:47:00,78.4,25.3,30.13,SSW,213,0.0,4.0,14,0.00,,,0.00,VWS V14.01,2013-03-02 20:47:00,
2013-03-02 13:52:00,78.1,25.1,30.13,SSW,213,2.0,5.0,14,0.00,,,0.00,VWS V14.01,2013-03-02 20:52:00,
2013-03-02 13:57:00,78.1,25.1,30.13,SW,219,1.0,4.0,14,0.00,,,0.00,VWS V14.01,2013-03-02 20:57:00,
2013-03-02 14:02:00,78.5,27.0,30.13,WSW,252,2.0,7.0,15,0.00,,,0.00,VWS V14.01,2013-03-02 21:02:00,
2013-03-02 14:07:00,79.3,27.7,30.13,West,281,4.0,10.0,15,0.00,,,0.00,VWS V14.01,2013-03-02 21:07:00,
2013-03-02 14:12:00,79.7,28.0,30.13,West,281,2.0,4.0,15,0.00,,,0.00,VWS V14.01,2013-03-02 21:12:00,
2013-03-02 14:17:00,79.6,29.5,30.12,West,281,2.0,4.0,16,0.00,,,0.00,VWS V14.01,2013-03-02 21:17:00,
2013-03-02 14:22:00,79.7,28.0,30.12,West,281,5.0,6.0,15,0.00,,,0.00,VWS V14.01,2013-03-02 21:22:00,
2013-03-02 14:27:00,79.3,27.7,30.12,West,281,0.0,2.0,15,0.00,,,0.00,VWS V14.01,2013-03-02 21:27:00,
2013-03-02 14:32:00,78.8,28.9,30.12,West,281,2.0,6.0,16,0.00,,,0.00,VWS V14.01,2013-03-02 21:32:00,
2013-03-02 14:37:00,79.3,27.7,30.12,West,281,2.0,4.0,15,0.00,,,0.00,VWS V14.01,2013-03-02 21:37:00,
2013-03-02 14:42:00,79.9,26.5,30.11,West,275,1.0,2.0,14,0.00,,,0.00,VWS V14.01,2013-03-02 21:42:00,
2013-03-02 14:47:00,79.5,27.9,30.11,West,275,2.0,4.0,15,0.00,,,0.00,VWS V14.01,2013-03-02 21:47:00,
2013-03-02 14:52:00,80.7,28.8,30.11,WSW,251,3.0,8.0,15,0.00,,,0.00,VWS V14.01,2013-03-02 21:52:00,
2013-03-02 14:57:00,80.4,28.6,30.11,WSW,244,5.0,5.0,15,0.00,,,0.00,VWS V14.01,2013-03-02 21:57:00,
2013-03-02 15:02:00,80.5,28.6,30.11,WSW,244,5.0,6.0,15,0.00,,,0.00,VWS V14.01,2013-03-02 22:02:00,
2013-03-02 15:07:00,80.3,28.5,30.11,WSW,251,0.0,3.0,15,0.00,,,0.00,VWS V14.01,2013-03-02 22:07:00,
2013-03-02 15:12:00,80.1,28.3,30.10,WSW,252,2.0,5.0,15,0.00,,,0.00,VWS V14.01,2013-03-02 22:12:00,
2013-03-02 15:17:00,79.4,27.8,30.10,WSW,252,1.0,1.0,15,0.00,,,0.00,VWS V14.01,2013-03-02 22:17:00,
2013-03-02 15:22:00,79.3,27.7,30.10,WSW,252,1.0,5.0,15,0.00,,,0.00,VWS V14.01,2013-03-02 22:22:00,
2013-03-02 15:27:00,79.1,27.5,30.10,West,263,2.0,2.0,15,0.00,,,0.00,VWS V14.01,2013-03-02 22:27:00,
2013-03-02 15:32:00,80.3,28.5,30.10,West,263,1.0,3.0,15,0.00,,,0.00,VWS V14.01,2013-03-02 22:32:00,
2013-03-02 15:37:00,80.2,26.7,30.09,West,275,3.0,6.0,14,0.00,,,0.00,VWS V14.01,2013-03-02 22:37:00,
2013-03-02 15:42:00,79.3,27.7,30.09,West,277,2.0,6.0,15,0.00,,,0.00,VWS V14.01,2013-03-02 22:42:00,
2013-03-02 15:47:00,79.3,26.0,30.09,West,277,3.0,4.0,14,0.00,,,0.00,VWS V14.01,2013-03-02 22:47:00,
2013-03-02 15:52:00,78.8,25.6,30.09,West,277,2.0,3.0,14,0.00,,,0.00,VWS V14.01,2013-03-02 22:52:00,
2013-03-02 15:57:00,79.2,25.9,30.09,West,277,1.0,4.0,14,0.00,,,0.00,VWS V14.01,2013-03-02 22:57:00,
2013-03-02 16:02:00,80.0,26.6,30.09,West,277,0.0,2.0,14,0.00,,,0.00,VWS V14.01,2013-03-02 23:02:00,
2013-03-02 16:07:00,80.4,26.9,30.08,West,277,2.0,4.0,14,0.00,,,0.00,VWS V14.01,2013-03-02 23:07:00,
2013-03-02 16:12:00,80.3,26.8,30.08,West,277,2.0,3.0,14,0.00,,,0.00,VWS V14.01,2013-03-02 23:12:00,
2013-03-02 16:17:00,79.8,26.4,30.08,West,277,0.0,3.0,14,0.00,,,0.00,VWS V14.01,2013-03-02 23:17:00,
2013-03-02 16:22:00,79.7,28.0,30.08,West,277,3.0,3.0,15,0.00,,,0.00,VWS V14.01,2013-03-02 23:22:00,
2013-03-02 16:27:00,80.3,26.8,30.08,West,277,2.0,5.0,14,0.00,,,0.00,VWS V14.01,2013-03-02 23:27:00,
2013-03-02 16:32:00,80.5,27.0,30.08,West,277,2.0,4.0,14,0.00,,,0.00,VWS V14.01,2013-03-02 23:32:00,
2013-03-02 16:37:00,80.3,26.8,30.07,West,277,0.0,3.0,14,0.00,,,0.00,VWS V14.01,2013-03-02 23:37:00,
2013-03-02 16:42:00,79.4,26.1,30.07,West,277,0.0,1.0,14,0.00,,,0.00,VWS V14.01,2013-03-02 23:42:00,
2013-03-02 16:47:00,79.9,26.5,30.07,West,277,0.0,3.0,14,0.00,,,0.00,VWS V14.01,2013-03-02 23:47:00,
2013-03-02 16:52:00,80.4,26.9,30.07,West,277,0.0,1.0,14,0.00,,,0.00,VWS V14.01,2013-03-02 23:52:00,
2013-03-02 16:57:00,80.3,26.8,30.07,West,277,0.0,1.0,14,0.00,,,0.00,VWS V14.01,2013-03-02 23:57:00,
2013-03-02 17:02:00,79.8,26.4,30.07,West,277,0.0,1.0,14,0.00,,,0.00,VWS V14.01,2013-03-03 00:02:00,
2013-03-02 17:07:00,79.7,28.0,30.07,West,277,1.0,3.0,15,0.00,,,0.00,VWS V14.01,2013-03-03 00:07:00,
2013-03-02 17:12:00,79.4,27.8,30.07,West,277,0.0,1.0,15,0.00,,,0.00,VWS V14.01,2013-03-03 00:12:00,
2013-03-02 17:17:00,79.1,29.1,30.06,West,277,0.0,1.0,16,0.00,,,0.00,VWS V14.01,2013-03-03 00:17:00,
2013-03-02 17:23:00,78.9,28.9,30.06,West,277,0.0,2.0,16,0.00,,,0.00,VWS V14.01,2013-03-03 00:23:00,
2013-03-02 17:28:00,78.7,27.2,30.06,West,277,0.0,1.0,15,0.00,,,0.00,VWS V14.01,2013-03-03 00:28:00,
2013-03-02 17:33:00,78.8,28.9,30.06,West,277,0.0,1.0,16,0.00,,,0.00,VWS V14.01,2013-03-03 00:33:00,
2013-03-02 17:38:00,79.0,29.0,30.06,West,277,2.0,4.0,16,0.00,,,0.00,VWS V14.01,2013-03-03 00:38:00,
2013-03-02 17:43:00,79.1,29.1,30.06,West,277,1.0,3.0,16,0.00,,,0.00,VWS V14.01,2013-03-03 00:43:00,
2013-03-02 17:48:00,78.9,28.9,30.06,West,277,5.0,5.0,16,0.00,,,0.00,VWS V14.01,2013-03-03 00:48:00,
2013-03-02 17:53:00,78.7,28.8,30.06,West,277,3.0,5.0,16,0.00,,,0.00,VWS V14.01,2013-03-03 00:53:00,
2013-03-02 17:58:00,78.3,28.5,30.06,West,277,1.0,3.0,16,0.00,,,0.00,VWS V14.01,2013-03-03 00:58:00,
2013-03-02 18:03:00,77.8,29.5,30.06,West,277,0.0,2.0,17,0.00,,,0.00,VWS V14.01,2013-03-03 01:03:00,
2013-03-02 18:08:00,77.3,30.5,30.06,West,277,0.0,1.0,18,0.00,,,0.00,VWS V14.01,2013-03-03 01:08:00,
2013-03-02 18:13:00,76.7,30.0,30.06,West,277,1.0,3.0,18,0.00,,,0.00,VWS V14.01,2013-03-03 01:13:00,
2013-03-02 18:18:00,76.2,31.0,30.06,West,277,0.0,2.0,19,0.00,,,0.00,VWS V14.01,2013-03-03 01:18:00,
2013-03-02 18:23:00,75.5,31.7,30.06,West,277,0.0,1.0,20,0.00,,,0.00,VWS V14.01,2013-03-03 01:23:00,
2013-03-02 18:28:00,74.8,31.1,30.06,West,277,0.0,2.0,20,0.00,,,0.00,VWS V14.01,2013-03-03 01:28:00,
2013-03-02 18:33:00,73.9,31.5,30.06,West,277,0.0,3.0,21,0.00,,,0.00,VWS V14.01,2013-03-03 01:33:00,
2013-03-02 18:38:00,72.9,31.9,30.06,West,277,0.0,2.0,22,0.00,,,0.00,VWS V14.01,2013-03-03 01:38:00,
2013-03-02 18:43:00,71.8,30.9,30.06,West,277,2.0,3.0,22,0.00,,,0.00,VWS V14.01,2013-03-03 01:43:00,
2013-03-02 18:48:00,70.8,31.2,30.06,West,277,2.0,3.0,23,0.00,,,0.00,VWS V14.01,2013-03-03 01:48:00,
2013-03-02 18:53:00,69.7,30.3,30.07,West,277,3.0,5.0,23,0.00,,,0.00,VWS V14.01,2013-03-03 01:53:00,
2013-03-02 18:58:00,68.8,30.6,30.07,West,277,1.0,4.0,24,0.00,,,0.00,VWS V14.01,2013-03-03 01:58:00,
2013-03-02 19:03:00,68.1,31.0,30.07,West,277,2.0,5.0,25,0.00,,,0.00,VWS V14.01,2013-03-03 02:03:00,
2013-03-02 19:08:00,67.4,30.4,30.07,West,277,2.0,5.0,25,0.00,,,0.00,VWS V14.01,2013-03-03 02:08:00,
2013-03-02 19:13:00,66.9,30.9,30.07,West,277,0.0,1.0,26,0.00,,,0.00,VWS V14.01,2013-03-03 02:13:00,
2013-03-02 19:18:00,65.6,31.6,30.07,West,277,3.0,4.0,28,0.00,,,0.00,VWS V14.01,2013-03-03 02:18:00,
2013-03-02 19:23:00,64.1,32.9,30.07,West,277,2.0,4.0,31,0.00,,,0.00,VWS V14.01,2013-03-03 02:23:00,
2013-03-02 19:28:00,63.4,31.5,30.07,West,277,0.0,2.0,30,0.00,,,0.00,VWS V14.01,2013-03-03 02:28:00,
2013-03-02 19:33:00,63.1,32.0,30.07,West,277,2.0,3.0,31,0.00,,,0.00,VWS V14.01,2013-03-03 02:33:00,
2013-03-02 19:38:00,62.7,30.8,30.07,West,277,0.0,3.0,30,0.00,,,0.00,VWS V14.01,2013-03-03 02:38:00,
2013-03-02 19:43:00,62.7,30.8,30.07,West,277,2.0,4.0,30,0.00,,,0.00,VWS V14.01,2013-03-03 02:43:00,
2013-03-02 19:48:00,62.6,30.8,30.07,West,277,3.0,4.0,30,0.00,,,0.00,VWS V14.01,2013-03-03 02:48:00,
2013-03-02 19:53:00,62.7,30.0,30.07,WNW,286,3.0,5.0,29,0.00,,,0.00,VWS V14.01,2013-03-03 02:53:00,
2013-03-02 19:58:00,62.9,29.3,30.07,WNW,302,4.0,7.0,28,0.00,,,0.00,VWS V14.01,2013-03-03 02:58:00,
2013-03-02 20:03:00,63.0,30.3,30.07,NW,304,4.0,6.0,29,0.00,,,0.00,VWS V14.01,2013-03-03 03:03:00,
2013-03-02 20:08:00,62.8,30.1,30.07,NW,308,4.0,7.0,29,0.00,,,0.00,VWS V14.01,2013-03-03 03:08:00,
2013-03-02 20:13:00,62.4,29.8,30.07,NW,310,2.0,5.0,29,0.00,,,0.00,VWS V14.01,2013-03-03 03:13:00,
2013-03-02 20:18:00,62.2,29.6,30.07,NW,311,1.0,4.0,29,0.00,,,0.00,VWS V14.01,2013-03-03 03:18:00,
2013-03-02 20:23:00,62.0,29.4,30.08,NW,312,6.0,6.0,29,0.00,,,0.00,VWS V14.01,2013-03-03 03:23:00,
2013-03-02 20:28:00,61.8,30.1,30.08,NW,312,1.0,6.0,30,0.00,,,0.00,VWS V14.01,2013-03-03 03:28:00,
2013-03-02 20:33:00,61.6,29.9,30.08,NW,312,1.0,4.0,30,0.00,,,0.00,VWS V14.01,2013-03-03 03:33:00,
2013-03-02 20:38:00,61.3,29.6,30.08,NW,312,3.0,5.0,30,0.00,,,0.00,VWS V14.01,2013-03-03 03:38:00,
2013-03-02 20:43:00,61.0,29.4,30.08,NW,312,2.0,6.0,30,0.00,,,0.00,VWS V14.01,2013-03-03 03:43:00,
2013-03-02 20:48:00,60.8,29.2,30.08,NW,316,3.0,6.0,30,0.00,,,0.00,VWS V14.01,2013-03-03 03:48:00,
2013-03-02 20:53:00,60.6,29.8,30.08,NW,320,3.0,4.0,31,0.00,,,0.00,VWS V14.01,2013-03-03 03:53:00,
2013-03-02 20:58:00,60.2,30.2,30.09,NW,321,3.0,5.0,32,0.00,,,0.00,VWS V14.01,2013-03-03 03:58:00,
2013-03-02 21:03:00,59.9,30.0,30.08,NW,321,2.0,4.0,32,0.00,,,0.00,VWS V14.01,2013-03-03 04:03:00,
2013-03-02 21:08:00,59.6,29.7,30.08,NW,321,4.0,6.0,32,0.00,,,0.00,VWS V14.01,2013-03-03 04:08:00,
2013-03-02 21:13:00,59.5,30.4,30.08,NW,321,3.0,4.0,33,0.00,,,0.00,VWS V14.01,2013-03-03 04:13:00,
2013-03-02 21:18:00,59.4,30.3,30.08,NW,321,1.0,3.0,33,0.00,,,0.00,VWS V14.01,2013-03-03 04:18:00,
2013-03-02 21:23:00,59.2,30.1,30.08,NW,321,0.0,3.0,33,0.00,,,0.00,VWS V14.01,2013-03-03 04:23:00,
2013-03-02 21:28:00,58.7,30.4,30.09,NW,321,2.0,3.0,34,0.00,,,0.00,VWS V14.01,2013-03-03 04:28:00,
2013-03-02 21:33:00,58.2,30.7,30.09,NW,321,1.0,3.0,35,0.00,,,0.00,VWS V14.01,2013-03-03 04:33:00,
2013-03-02 21:38:00,57.5,30.8,30.09,NW,321,0.0,4.0,36,0.00,,,0.00,VWS V14.01,2013-03-03 04:38:00,
2013-03-02 21:43:00,56.7,30.7,30.09,NW,321,0.0,2.0,37,0.00,,,0.00,VWS V14.01,2013-03-03 04:43:00,
2013-03-02 21:48:00,56.2,31.0,30.09,NW,321,3.0,4.0,38,0.00,,,0.00,VWS V14.01,2013-03-03 04:48:00,
2013-03-02 21:53:00,55.5,30.3,30.09,NW,321,3.0,4.0,38,0.00,,,0.00,VWS V14.01,2013-03-03 04:53:00,
2013-03-02 21:58:00,55.0,29.9,30.09,NW,321,5.0,6.0,38,0.00,,,0.00,VWS V14.01,2013-03-03 04:58:00,
2013-03-02 22:01:00,55.0,29.9,30.09,NW,321,5.0,8.0,38,0.00,,,0.00,VWS V14.01,2013-03-03 05:01:00,
2013-03-02 22:06:00,55.0,29.9,30.09,NW,321,0.0,5.0,38,0.00,,,0.00,VWS V14.01,2013-03-03 05:06:00,
2013-03-02 22:11:00,55.1,29.3,30.09,NW,321,2.0,6.0,37,0.00,,,0.00,VWS V14.01,2013-03-03 05:11:00,
2013-03-02 22:16:00,55.2,30.1,30.09,NW,321,1.0,6.0,38,0.00,,,0.00,VWS V14.01,2013-03-03 05:16:00,
2013-03-02 22:21:00,55.0,29.9,30.09,NW,321,4.0,6.0,38,0.00,,,0.00,VWS V14.01,2013-03-03 05:21:00,
2013-03-02 22:28:00,54.8,29.7,30.08,NW,321,4.0,5.0,38,0.00,,,0.00,VWS V14.01,2013-03-03 05:28:00,
2013-03-02 22:33:00,54.9,29.8,30.08,NW,321,3.0,4.0,38,0.00,,,0.00,VWS V14.01,2013-03-03 05:33:00,
2013-03-02 22:38:00,55.0,29.9,30.08,NW,321,2.0,4.0,38,0.00,,,0.00,VWS V14.01,2013-03-03 05:38:00,
2013-03-02 22:43:00,55.1,29.3,30.08,NW,321,2.0,3.0,37,0.00,,,0.00,VWS V14.01,2013-03-03 05:43:00,
2013-03-02 22:48:00,55.1,30.0,30.08,NW,321,4.0,4.0,38,0.00,,,0.00,VWS V14.01,2013-03-03 05:48:00,
2013-03-02 22:53:00,54.7,29.6,30.08,NW,321,3.0,6.0,38,0.00,,,0.00,VWS V14.01,2013-03-03 05:53:00,
2013-03-02 22:58:00,54.4,29.3,30.08,NW,321,0.0,4.0,38,0.00,,,0.00,VWS V14.01,2013-03-03 05:58:00,
2013-03-02 23:03:00,54.2,29.8,30.08,NW,321,0.0,0.0,39,0.00,,,0.00,VWS V14.01,2013-03-03 06:03:00,
2013-03-02 23:08:00,53.9,30.1,30.08,NW,321,3.0,4.0,40,0.00,,,0.00,VWS V14.01,2013-03-03 06:08:00,
2013-03-02 23:13:00,53.2,30.7,30.07,NW,321,3.0,4.0,42,0.00,,,0.00,VWS V14.01,2013-03-03 06:13:00,
2013-03-02 23:18:00,52.5,30.1,30.07,NW,321,2.0,5.0,42,0.00,,,0.00,VWS V14.01,2013-03-03 06:18:00,
2013-03-02 23:23:00,52.0,30.2,30.07,NW,321,1.0,2.0,43,0.00,,,0.00,VWS V14.01,2013-03-03 06:23:00,
2013-03-02 23:28:00,51.7,29.9,30.07,NW,321,2.0,3.0,43,0.00,,,0.00,VWS V14.01,2013-03-03 06:28:00,
2013-03-02 23:33:00,51.4,29.7,30.07,NW,321,0.0,1.0,43,0.00,,,0.00,VWS V14.01,2013-03-03 06:33:00,
2013-03-02 23:38:00,51.2,29.5,30.07,NW,321,1.0,2.0,43,0.00,,,0.00,VWS V14.01,2013-03-03 06:38:00,
2013-03-02 23:43:00,51.0,29.9,30.07,NW,321,1.0,3.0,44,0.00,,,0.00,VWS V14.01,2013-03-03 06:43:00,
2013-03-02 23:48:00,50.9,29.2,30.07,NW,321,3.0,5.0,43,0.00,,,0.00,VWS V14.01,2013-03-03 06:48:00,
2013-03-02 23:53:00,51.2,29.5,30.07,NW,321,2.0,5.0,43,0.00,,,0.00,VWS V14.01,2013-03-03 06:53:00,
2013-03-02 23:58:00,51.7,29.4,30.07,NW,321,2.0,5.0,42,0.00,,,0.00,VWS V14.01,2013-03-03 06:58:00,